Time;durP1;ratioP1;P1;durP2;ratioP2;P2;SDS_P1;SDS_P2;PMS_P1;PMS_P2;Temp;Humidity;BMP_temperature;BMP_pressure;BME280_temperature;BME280_humidity;BME280_pressure;Samples;Min_cycle;Max_cycle;Signal;HPM_P1;HPM_P2
2023/12/14 00:03:43;;;;;;;213.23;110.23;;;7.80;99.90;;;;;;10363676;28;20227;-79
2023/12/14 00:08:46;;;;;;;232.77;125.60;;;7.50;99.90;;;;;;10365660;28;20231;-79
2023/12/14 00:13:49;;;;;;;283.90;151.83;;;7.70;99.90;;;;;;10363183;28;20277;-79
2023/12/14 00:18:51;;;;;;;204.07;117.53;;;7.50;99.90;;;;;;10363443;28;20248;-78
2023/12/14 00:23:54;;;;;;;361.97;192.03;;;7.60;99.90;;;;;;10365345;28;20278;-78
2023/12/14 00:28:56;;;;;;;273.13;151.53;;;7.70;99.90;;;;;;10358221;28;20224;-78
2023/12/14 00:34:03;;;;;;;223.53;119.13;;;7.80;99.90;;;;;;10362898;28;20231;-79
2023/12/14 00:39:06;;;;;;;118.33;66.13;;;7.70;99.90;;;;;;10366372;28;20278;-79
2023/12/14 00:44:08;;;;;;;103.87;53.10;;;7.80;99.90;;;;;;10364805;28;20224;-79
2023/12/14 00:49:11;;;;;;;285.47;156.90;;;7.30;99.90;;;;;;10364300;28;20259;-79
2023/12/14 00:54:13;;;;;;;173.90;94.37;;;7.90;99.90;;;;;;10371793;28;20286;-79
2023/12/14 00:59:16;;;;;;;203.73;111.93;;;7.50;99.90;;;;;;10371808;28;20247;-79
2023/12/14 01:04:19;;;;;;;282.07;154.67;;;7.10;99.90;;;;;;10372851;28;20769;-79
2023/12/14 01:09:21;;;;;;;170.87;93.93;;;7.30;99.90;;;;;;10369800;28;20293;-79
2023/12/14 01:14:24;;;;;;;105.83;54.57;;;7.30;99.90;;;;;;10370825;28;20291;-79
2023/12/14 01:19:27;;;;;;;268.60;155.00;;;7.50;99.90;;;;;;10371816;28;20297;-79
2023/12/14 01:24:29;;;;;;;226.97;128.97;;;7.90;99.90;;;;;;10371770;28;20235;-79
2023/12/14 01:29:32;;;;;;;148.43;87.43;;;7.70;99.90;;;;;;10390939;28;20239;-79
2023/12/14 01:34:34;;;;;;;165.80;93.17;;;7.20;99.90;;;;;;10412338;28;20273;-79
2023/12/14 01:39:36;;;;;;;83.23;45.67;;;6.90;99.90;;;;;;10338651;28;20347;-79
2023/12/14 01:44:39;;;;;;;56.07;30.63;;;6.60;99.90;;;;;;10330445;28;20267;-79
2023/12/14 01:49:42;;;;;;;135.07;78.80;;;6.20;99.90;;;;;;10373041;28;20259;-78
2023/12/14 01:54:44;;;;;;;75.20;43.57;;;6.20;99.90;;;;;;10411463;28;20246;-78
2023/12/14 01:59:48;;;;;;;49.10;27.00;;;6.00;99.90;;;;;;10411773;28;20249;-78
2023/12/14 02:04:50;;;;;;;235.60;133.37;;;6.20;99.90;;;;;;10410278;28;20236;-78
2023/12/14 02:09:53;;;;;;;77.07;44.10;;;6.50;99.90;;;;;;10382935;28;20241;-79
2023/12/14 02:14:56;;;;;;;42.50;25.70;;;6.30;99.90;;;;;;10402236;28;20281;-79
2023/12/14 02:20:00;;;;;;;59.60;35.43;;;6.20;99.90;;;;;;10410768;28;20257;-79
2023/12/14 02:25:04;;;;;;;173.13;93.50;;;6.00;99.90;;;;;;10369737;28;20247;-79
2023/12/14 02:30:07;;;;;;;164.00;92.57;;;6.30;99.90;;;;;;10369678;28;20301;-78
2023/12/14 02:35:10;;;;;;;38.17;24.17;;;6.30;99.90;;;;;;10369704;28;20646;-78
2023/12/14 02:40:12;;;;;;;95.77;55.23;;;5.90;99.90;;;;;;10363002;28;21084;-79
2023/12/14 02:45:15;;;;;;;45.67;31.33;;;6.00;99.90;;;;;;10328749;28;20234;-79
2023/12/14 02:50:17;;;;;;;33.77;19.33;;;6.00;99.90;;;;;;10389204;28;20299;-79
2023/12/14 02:55:20;;;;;;;35.13;21.90;;;5.80;99.90;;;;;;10408797;28;20319;-79
2023/12/14 03:00:22;;;;;;;122.90;69.37;;;5.80;99.90;;;;;;10409285;28;20266;-79
2023/12/14 03:05:25;;;;;;;32.83;21.80;;;5.90;99.90;;;;;;10409513;28;20265;-79
2023/12/14 03:10:27;;;;;;;170.90;93.03;;;5.60;99.90;;;;;;10409161;28;20228;-79
2023/12/14 03:15:30;;;;;;;58.77;35.67;;;5.60;99.90;;;;;;10375918;28;20229;-78
2023/12/14 03:20:33;;;;;;;65.60;41.93;;;5.50;99.90;;;;;;10367089;28;20326;-79
2023/12/14 03:25:35;;;;;;;25.07;15.60;;;5.30;99.90;;;;;;10382622;28;20263;-80
2023/12/14 03:30:38;;;;;;;103.43;61.77;;;5.20;99.90;;;;;;10391704;28;20765;-79
2023/12/14 03:35:41;;;;;;;33.27;18.97;;;5.30;99.90;;;;;;10367596;28;20263;-79
2023/12/14 03:40:44;;;;;;;36.13;23.00;;;5.00;99.90;;;;;;10382327;28;20243;-79
2023/12/14 03:45:46;;;;;;;64.07;37.07;;;5.10;99.90;;;;;;10393722;28;20248;-79
2023/12/14 03:50:50;;;;;;;54.70;32.90;;;5.00;99.90;;;;;;10396367;28;20606;-78
2023/12/14 03:55:53;;;;;;;29.80;15.33;;;;;;;;;;10407873;28;20300;-78
2023/12/14 04:00:55;;;;;;;29.50;18.43;;;4.80;99.90;;;;;;10407490;28;20254;-78
2023/12/14 04:05:58;;;;;;;50.63;30.67;;;4.80;99.90;;;;;;10380015;28;20236;-79
2023/12/14 04:11:00;;;;;;;24.23;15.30;;;4.80;99.90;;;;;;10374746;28;20625;-79
2023/12/14 04:16:03;;;;;;;69.53;40.60;;;4.70;99.90;;;;;;10406562;28;20203;-79
2023/12/14 04:21:06;;;;;;;78.10;50.20;;;4.80;99.90;;;;;;10396264;28;20264;-79
2023/12/14 04:26:09;;;;;;;61.33;38.87;;;4.80;99.90;;;;;;10370301;28;20244;-79
2023/12/14 04:31:12;;;;;;;38.80;23.43;;;4.90;99.90;;;;;;10373232;28;20843;-79
2023/12/14 04:36:14;;;;;;;95.47;56.03;;;5.00;99.90;;;;;;10373649;28;20272;-79
2023/12/14 04:41:17;;;;;;;34.57;22.50;;;4.80;99.90;;;;;;10387422;28;20252;-79
2023/12/14 04:46:20;;;;;;;25.07;15.80;;;4.80;99.90;;;;;;10413835;28;20715;-78
2023/12/14 04:51:22;;;;;;;30.07;18.67;;;4.50;99.90;;;;;;10402988;28;20286;-78
2023/12/14 04:56:25;;;;;;;46.67;28.03;;;4.60;99.90;;;;;;10350214;28;20761;-79
2023/12/14 05:01:28;;;;;;;38.27;22.93;;;4.80;99.90;;;;;;10332508;28;20316;-79
2023/12/14 05:06:35;;;;;;;35.30;20.20;;;4.80;99.90;;;;;;10331312;28;20241;-79
2023/12/14 05:11:39;;;;;;;97.77;58.67;;;4.90;99.90;;;;;;10331996;28;20248;-78
2023/12/14 05:16:43;;;;;;;35.53;20.77;;;4.90;99.90;;;;;;10412735;28;20680;-78
2023/12/14 05:21:45;;;;;;;50.37;29.10;;;4.70;99.90;;;;;;10408964;28;20285;-79
2023/12/14 05:26:48;;;;;;;76.23;47.17;;;4.80;99.90;;;;;;10351776;28;20286;-79
2023/12/14 05:31:50;;;;;;;36.77;22.57;;;4.70;99.90;;;;;;10412532;28;20266;-79
2023/12/14 05:36:53;;;;;;;43.67;27.37;;;4.60;99.90;;;;;;10395682;28;20224;-79
2023/12/14 05:41:55;;;;;;;37.17;22.30;;;4.50;99.90;;;;;;10386488;28;20257;-78
2023/12/14 05:46:58;;;;;;;34.53;19.77;;;4.30;99.90;;;;;;10412169;28;20264;-79
2023/12/14 05:52:00;;;;;;;28.67;18.90;;;4.60;99.90;;;;;;10411669;28;20236;-79
2023/12/14 05:57:04;;;;;;;35.93;22.90;;;4.40;99.90;;;;;;10363796;28;20309;-79
2023/12/14 06:02:06;;;;;;;46.53;29.77;;;4.30;99.90;;;;;;10398922;28;20328;-79
2023/12/14 06:07:09;;;;;;;39.20;22.87;;;4.50;99.90;;;;;;10370482;28;20636;-79
2023/12/14 06:12:11;;;;;;;33.23;19.77;;;4.50;99.90;;;;;;10361045;28;20240;-79
2023/12/14 06:17:14;;;;;;;28.00;17.60;;;4.50;99.90;;;;;;10352356;28;20691;-79
2023/12/14 06:22:16;;;;;;;74.07;46.90;;;4.20;99.90;;;;;;10410345;28;20290;-79
2023/12/14 06:27:19;;;;;;;32.37;20.83;;;4.30;99.90;;;;;;10405675;28;20232;-79
2023/12/14 06:32:21;;;;;;;25.17;15.30;;;4.20;99.90;;;;;;10381845;28;20232;-79
2023/12/14 06:37:24;;;;;;;41.63;21.40;;;4.20;99.90;;;;;;10359509;28;20256;-81
2023/12/14 06:42:27;;;;;;;28.53;18.07;;;4.40;99.90;;;;;;10328476;28;20331;-81
2023/12/14 06:47:30;;;;;;;27.63;15.37;;;5.40;99.90;;;;;;10327283;28;20261;-81
2023/12/14 06:52:32;;;;;;;22.13;14.00;;;4.70;99.90;;;;;;10404080;28;20250;-81
2023/12/14 06:57:36;;;;;;;22.73;14.47;;;4.50;99.90;;;;;;10409279;28;20243;-81
2023/12/14 07:02:38;;;;;;;18.97;12.73;;;4.40;99.90;;;;;;10408899;28;20310;-81
2023/12/14 07:07:41;;;;;;;18.70;12.70;;;4.30;99.90;;;;;;10408813;28;20227;-81
2023/12/14 07:12:43;;;;;;;19.87;13.33;;;4.30;99.90;;;;;;10408798;28;20282;-81
2023/12/14 07:17:46;;;;;;;19.63;13.07;;;4.20;99.90;;;;;;10408836;28;20663;-81
2023/12/14 07:22:49;;;;;;;20.63;13.50;;;4.20;99.90;;;;;;10408137;28;20247;-81
2023/12/14 07:27:52;;;;;;;19.43;13.47;;;4.20;99.90;;;;;;10404755;28;20330;-81
2023/12/14 07:32:55;;;;;;;19.83;12.83;;;4.20;99.90;;;;;;10374628;28;20668;-80
2023/12/14 07:37:57;;;;;;;23.47;14.07;;;4.30;99.90;;;;;;10394715;28;20979;-81
2023/12/14 07:43:00;;;;;;;23.10;15.10;;;4.20;99.90;;;;;;10405627;28;20656;-80
2023/12/14 07:48:03;;;;;;;21.73;14.20;;;4.40;99.90;;;;;;10405461;28;20732;-80
2023/12/14 07:53:06;;;;;;;25.13;14.97;;;4.60;99.90;;;;;;10407124;28;20255;-81
2023/12/14 07:58:09;;;;;;;20.73;13.80;;;4.80;99.90;;;;;;10405953;28;20270;-81
2023/12/14 08:03:11;;;;;;;24.23;16.43;;;4.80;99.90;;;;;;10414646;28;20286;-81
2023/12/14 08:08:14;;;;;;;24.60;14.30;;;4.60;99.90;;;;;;10397827;28;20260;-80
2023/12/14 08:13:17;;;;;;;23.57;15.87;;;4.50;99.90;;;;;;10395062;28;20650;-80
2023/12/14 08:18:19;;;;;;;27.83;16.87;;;4.60;99.90;;;;;;10415371;28;20235;-81
2023/12/14 08:23:23;;;;;;;27.37;16.13;;;4.60;99.90;;;;;;10414887;28;20784;-81
2023/12/14 08:28:26;;;;;;;24.73;15.30;;;4.80;99.90;;;;;;10408531;28;20229;-80
2023/12/14 08:33:29;;;;;;;26.20;16.73;;;4.70;99.90;;;;;;10372477;28;20287;-80
2023/12/14 08:38:31;;;;;;;26.60;15.00;;;4.70;99.90;;;;;;10374054;28;20626;-80
2023/12/14 08:43:34;;;;;;;22.47;15.10;;;4.90;99.90;;;;;;10373467;28;20799;-80
2023/12/14 08:48:37;;;;;;;30.47;16.40;;;4.90;99.90;;;;;;10404690;28;20293;-80
2023/12/14 08:53:40;;;;;;;23.83;15.33;;;5.00;99.90;;;;;;10405875;28;20224;-80
2023/12/14 08:58:43;;;;;;;22.13;14.60;;;5.00;99.90;;;;;;10371773;28;20285;-80
2023/12/14 09:03:45;;;;;;;22.90;13.93;;;4.80;99.90;;;;;;10373080;28;20263;-80
2023/12/14 09:08:48;;;;;;;22.43;14.07;;;4.80;99.90;;;;;;10379782;28;20227;-81
2023/12/14 09:13:51;;;;;;;24.90;15.60;;;4.80;99.90;;;;;;10384939;28;20847;-80
2023/12/14 09:18:53;;;;;;;18.43;12.67;;;4.80;99.90;;;;;;10380435;28;20258;-80
2023/12/14 09:23:56;;;;;;;53.53;32.00;;;4.60;99.90;;;;;;10412391;28;20258;-80
2023/12/14 09:28:58;;;;;;;21.73;14.63;;;4.90;99.90;;;;;;10413467;28;20243;-80
2023/12/14 09:34:01;;;;;;;17.70;11.77;;;4.80;99.90;;;;;;10411435;28;20228;-80
2023/12/14 09:39:04;;;;;;;25.80;16.10;;;4.80;99.90;;;;;;10412177;28;20242;-80
2023/12/14 09:44:07;;;;;;;20.23;14.20;;;4.70;99.90;;;;;;10411835;28;20266;-80
2023/12/14 09:49:10;;;;;;;17.33;12.10;;;4.70;99.90;;;;;;10381630;28;20259;-80
2023/12/14 09:54:13;;;;;;;20.80;13.47;;;4.60;99.90;;;;;;10369364;28;20250;-80
2023/12/14 09:59:16;;;;;;;43.93;24.23;;;4.70;99.90;;;;;;10369911;28;20693;-79
2023/12/14 10:04:20;;;;;;;36.17;21.30;;;4.70;99.90;;;;;;10401363;28;20232;-80
2023/12/14 10:09:23;;;;;;;18.50;14.03;;;5.10;99.90;;;;;;10410744;28;20224;-80
2023/12/14 10:14:25;;;;;;;20.43;13.33;;;5.10;99.90;;;;;;10374924;28;20262;-80
2023/12/14 10:19:28;;;;;;;22.17;15.30;;;4.90;99.90;;;;;;10369616;28;20700;-80
2023/12/14 10:24:32;;;;;;;21.43;13.27;;;5.00;99.90;;;;;;10386136;28;20309;-79
2023/12/14 10:29:37;;;;;;;17.63;12.87;;;5.20;99.90;;;;;;10400668;28;20297;-81
2023/12/14 10:34:40;;;;;;;20.47;13.70;;;5.10;99.90;;;;;;10410361;28;20265;-79
2023/12/14 10:39:43;;;;;;;20.20;14.03;;;5.00;99.90;;;;;;10375733;28;20340;-79
2023/12/14 10:44:51;;;;;;;22.30;14.47;;;5.00;99.90;;;;;;10348597;28;20265;-78
2023/12/14 10:50:14;;;;;;;65.27;34.63;;;4.90;99.90;;;;;;10339549;28;20249;-79
2023/12/14 10:55:31;;;;;;;15.13;11.57;;;5.10;99.90;;;;;;10360756;28;20293;-78
2023/12/14 11:00:34;;;;;;;42.97;26.37;;;5.20;99.90;;;;;;10023154;28;10001429;-78
2023/12/14 11:05:38;;;;;;;29.10;17.23;;;5.30;99.90;;;;;;10387113;28;20692;-78
2023/12/14 11:11:09;;;;;;;16.37;11.77;;;5.20;99.90;;;;;;10366319;28;20232;-78
2023/12/14 11:16:11;;;;;;;38.03;22.93;;;5.00;99.90;;;;;;10363665;28;20220;-79
2023/12/14 11:21:26;;;;;;;18.93;12.93;;;5.20;99.90;;;;;;10396719;28;20691;-79
2023/12/14 11:26:29;;;;;;;19.57;14.57;;;5.10;99.90;;;;;;10366046;28;20313;-79
2023/12/14 11:31:32;;;;;;;38.70;22.90;;;5.30;99.90;;;;;;10367632;28;20254;-79
2023/12/14 11:36:36;;;;;;;24.77;15.77;;;5.30;99.90;;;;;;10369251;28;20286;-78
2023/12/14 11:41:39;;;;;;;15.90;12.40;;;5.30;99.90;;;;;;10351674;28;20780;-78
2023/12/14 11:46:48;;;;;;;16.97;11.20;;;5.40;99.90;;;;;;10373018;28;20247;-78
2023/12/14 11:51:58;;;;;;;16.00;11.47;;;5.20;99.90;;;;;;10363858;28;20295;-79
2023/12/14 11:57:02;;;;;;;11.97;8.70;;;5.10;99.90;;;;;;10368324;28;20302;-79
2023/12/14 12:02:05;;;;;;;13.10;9.20;;;5.00;99.90;;;;;;10365749;28;20330;-79
2023/12/14 12:07:08;;;;;;;15.37;12.17;;;5.10;99.90;;;;;;10364520;28;20683;-79
2023/12/14 12:12:14;;;;;;;14.67;10.03;;;5.20;99.90;;;;;;10360159;28;20240;-78
2023/12/14 12:17:19;;;;;;;13.13;10.13;;;5.10;99.90;;;;;;10365755;28;20235;-78
2023/12/14 12:22:21;;;;;;;15.60;11.50;;;4.80;99.90;;;;;;10370095;28;20707;-78
2023/12/14 12:27:25;;;;;;;15.80;10.50;;;4.60;99.90;;;;;;10364663;28;20298;-78
2023/12/14 12:32:27;;;;;;;12.07;9.80;;;4.70;99.90;;;;;;10402419;28;20241;-79
2023/12/14 12:37:30;;;;;;;15.07;10.33;;;4.70;99.90;;;;;;10406678;28;20607;-79
2023/12/14 12:42:32;;;;;;;15.37;9.80;;;4.60;99.90;;;;;;10406500;28;20255;-78
2023/12/14 12:47:35;;;;;;;13.00;8.60;;;4.60;99.90;;;;;;10409525;28;20290;-79
2023/12/14 12:52:38;;;;;;;10.47;7.30;;;4.70;99.90;;;;;;10413811;28;20636;-78
2023/12/14 12:57:41;;;;;;;20.97;14.67;;;4.50;99.90;;;;;;10387525;28;20236;-79
2023/12/14 13:02:45;;;;;;;18.47;11.97;;;4.70;99.90;;;;;;10411765;28;20306;-79
2023/12/14 13:07:47;;;;;;;17.60;11.63;;;4.60;99.90;;;;;;10411587;28;20262;-78
2023/12/14 13:12:50;;;;;;;12.37;9.37;;;4.60;99.90;;;;;;10409455;28;20242;-79
2023/12/14 13:17:53;;;;;;;11.43;8.33;;;4.50;99.90;;;;;;10371822;28;20313;-79
2023/12/14 13:22:56;;;;;;;11.93;8.63;;;4.60;99.90;;;;;;10372320;28;20667;-79
2023/12/14 13:27:59;;;;;;;15.70;9.90;;;4.60;99.90;;;;;;10393794;28;20670;-79
2023/12/14 13:33:03;;;;;;;18.50;10.70;;;4.80;99.90;;;;;;10412033;28;20623;-79
2023/12/14 13:38:06;;;;;;;15.10;9.00;;;4.60;99.90;;;;;;10412157;28;20297;-79
2023/12/14 13:43:10;;;;;;;11.83;8.50;;;4.60;99.90;;;;;;10411390;28;20507;-78
2023/12/14 13:48:13;;;;;;;15.40;11.30;;;4.40;99.90;;;;;;10411351;28;20259;-78
2023/12/14 13:53:16;;;;;;;10.47;7.40;;;4.60;99.90;;;;;;10411383;28;20231;-79
2023/12/14 13:58:20;;;;;;;23.33;16.23;;;4.50;99.90;;;;;;10409843;28;20653;-78
2023/12/14 14:03:23;;;;;;;30.43;18.50;;;4.50;99.90;;;;;;10410815;28;20659;-79
2023/12/14 14:08:25;;;;;;;15.17;9.87;;;4.60;99.90;;;;;;10392918;28;20228;-79
2023/12/14 14:13:29;;;;;;;12.83;8.53;;;4.60;99.90;;;;;;10401870;28;20239;-79
2023/12/14 14:18:31;;;;;;;15.83;9.90;;;4.60;99.90;;;;;;10409857;28;20796;-79
2023/12/14 14:23:36;;;;;;;15.57;11.13;;;4.60;99.90;;;;;;10381567;28;20299;-78
2023/12/14 14:28:39;;;;;;;16.13;11.27;;;4.40;99.90;;;;;;10361363;28;20245;-78
2023/12/14 14:33:42;;;;;;;14.23;9.87;;;4.30;99.90;;;;;;10346641;28;20624;-79
2023/12/14 14:38:44;;;;;;;17.73;12.30;;;4.20;99.90;;;;;;10366564;28;20239;-79
2023/12/14 14:43:47;;;;;;;24.57;15.30;;;4.20;99.90;;;;;;10402104;28;20264;-79
2023/12/14 14:48:49;;;;;;;20.63;13.70;;;4.50;99.90;;;;;;10395519;28;20327;-79
2023/12/14 14:53:51;;;;;;;24.03;12.40;;;4.60;99.90;;;;;;10408034;28;20235;-79
2023/12/14 14:58:55;;;;;;;19.53;11.63;;;4.40;99.90;;;;;;10407975;28;20220;-79
2023/12/14 15:03:59;;;;;;;14.07;9.63;;;4.30;99.90;;;;;;10408308;28;20251;-79
2023/12/14 15:09:01;;;;;;;14.97;10.80;;;4.10;99.90;;;;;;10408140;28;20239;-79
2023/12/14 15:14:05;;;;;;;18.73;12.13;;;4.00;99.90;;;;;;10408225;28;20302;-78
2023/12/14 15:19:08;;;;;;;19.30;13.30;;;3.90;99.90;;;;;;10407821;28;20278;-79
2023/12/14 15:24:10;;;;;;;16.87;10.37;;;4.10;99.90;;;;;;10405784;28;20319;-79
2023/12/14 15:29:12;;;;;;;16.03;10.67;;;4.00;99.90;;;;;;10407298;28;20698;-79
2023/12/14 15:34:15;;;;;;;44.60;24.30;;;3.90;99.90;;;;;;10396314;28;20232;-80
2023/12/14 15:39:17;;;;;;;15.53;11.47;;;5.20;99.90;;;;;;10350609;28;20622;-80
2023/12/14 15:44:20;;;;;;;18.60;12.50;;;5.20;99.90;;;;;;10326362;28;20265;-79
2023/12/14 15:49:23;;;;;;;21.07;13.20;;;5.10;99.90;;;;;;10348060;28;20301;-79
2023/12/14 15:54:25;;;;;;;28.73;16.67;;;5.00;99.90;;;;;;10365200;28;20228;-79
2023/12/14 15:59:28;;;;;;;19.43;12.87;;;4.70;99.90;;;;;;10405424;28;20225;-79
2023/12/14 16:04:30;;;;;;;22.83;14.90;;;4.60;99.90;;;;;;10361308;28;20254;-79
2023/12/14 16:09:33;;;;;;;16.03;11.40;;;4.60;99.90;;;;;;10357509;28;20296;-79
2023/12/14 16:14:35;;;;;;;20.33;13.10;;;4.70;99.90;;;;;;10363486;28;20288;-79
2023/12/14 16:19:38;;;;;;;15.20;9.17;;;4.60;99.90;;;;;;10379361;28;20228;-79
2023/12/14 16:24:40;;;;;;;15.00;8.30;;;4.40;99.90;;;;;;10414325;28;20252;-79
2023/12/14 16:29:46;;;;;;;12.53;8.03;;;3.90;99.90;;;;;;10414746;28;20229;-79
2023/12/14 16:34:48;;;;;;;12.27;7.70;;;3.70;99.90;;;;;;10402846;28;20667;-79
2023/12/14 16:39:51;;;;;;;11.83;8.53;;;3.80;99.90;;;;;;10384576;28;20228;-79
2023/12/14 16:44:54;;;;;;;13.03;8.60;;;3.80;99.90;;;;;;10414398;28;20640;-79
2023/12/14 16:49:56;;;;;;;13.40;8.70;;;3.70;99.90;;;;;;10412014;28;20259;-79
2023/12/14 16:54:59;;;;;;;10.53;7.23;;;3.70;99.90;;;;;;9999114;28;10000452;-79
2023/12/14 17:00:02;;;;;;;10.47;7.53;;;3.50;99.90;;;;;;10371724;28;20235;-79
2023/12/14 17:05:04;;;;;;;9.97;6.67;;;3.60;99.90;;;;;;10369460;28;20248;-79
2023/12/14 17:10:07;;;;;;;12.87;8.13;;;3.60;99.90;;;;;;10363784;28;20229;-79
2023/12/14 17:15:12;;;;;;;13.83;9.40;;;3.60;99.90;;;;;;10311361;28;20245;-79
2023/12/14 17:20:15;;;;;;;14.07;9.43;;;3.80;99.90;;;;;;10344519;28;20236;-79
2023/12/14 17:25:17;;;;;;;16.03;10.40;;;3.70;99.90;;;;;;10345837;28;20286;-79
2023/12/14 17:30:20;;;;;;;35.90;21.43;;;3.60;99.90;;;;;;10382034;28;20257;-78
2023/12/14 17:35:23;;;;;;;54.47;29.07;;;3.70;99.90;;;;;;10359063;28;20631;-78
2023/12/14 17:40:25;;;;;;;41.03;22.47;;;3.90;99.90;;;;;;10354803;28;20240;-79
2023/12/14 17:45:28;;;;;;;40.03;22.40;;;4.00;99.90;;;;;;10329687;28;20265;-79
2023/12/14 17:50:31;;;;;;;59.00;34.50;;;4.10;99.90;;;;;;10357911;28;20233;-79
2023/12/14 17:55:33;;;;;;;23.70;16.83;;;4.00;99.90;;;;;;10347395;28;20236;-79
2023/12/14 18:00:36;;;;;;;53.30;32.37;;;4.00;99.90;;;;;;10358758;28;20279;-78
2023/12/14 18:05:38;;;;;;;32.27;21.53;;;3.90;99.90;;;;;;10367870;28;20251;-78
2023/12/14 18:10:41;;;;;;;49.97;29.47;;;4.00;99.90;;;;;;10380383;28;20351;-78
2023/12/14 18:15:44;;;;;;;39.90;24.03;;;4.00;99.90;;;;;;10380108;28;20280;-78
2023/12/14 18:20:46;;;;;;;38.87;25.10;;;4.00;99.90;;;;;;10344287;28;20645;-78
2023/12/14 18:25:49;;;;;;;28.73;19.50;;;4.00;99.90;;;;;;10346356;28;20284;-79
2023/12/14 18:30:52;;;;;;;62.40;37.37;;;4.00;99.90;;;;;;10352687;28;20642;-79
2023/12/14 18:35:55;;;;;;;35.60;22.10;;;4.10;99.90;;;;;;10340398;28;20233;-78
2023/12/14 18:40:57;;;;;;;36.13;20.37;;;4.00;99.90;;;;;;10378031;28;20235;-78
2023/12/14 18:46:00;;;;;;;175.73;90.00;;;3.70;99.90;;;;;;10354441;28;20325;-79
2023/12/14 18:51:03;;;;;;;72.23;39.83;;;3.60;99.90;;;;;;10401463;28;20225;-78
2023/12/14 18:56:06;;;;;;;32.70;18.47;;;3.30;99.90;;;;;;10356679;28;20914;-79
2023/12/14 19:01:11;;;;;;;25.70;13.43;;;2.90;99.90;;;;;;10362611;28;20250;-79
2023/12/14 19:06:14;;;;;;;23.33;13.93;;;2.70;99.90;;;;;;10355664;28;20261;-79
2023/12/14 19:11:18;;;;;;;24.97;12.97;;;2.50;99.90;;;;;;10327397;28;20284;-79
2023/12/14 19:16:26;;;;;;;40.10;27.47;;;2.30;99.90;;;;;;10327097;28;20697;-79
2023/12/14 19:21:29;;;;;;;29.27;19.03;;;2.50;99.90;;;;;;10351747;28;20295;-79
2023/12/14 19:26:31;;;;;;;22.53;14.33;;;2.60;99.90;;;;;;10356729;28;20232;-79
2023/12/14 19:31:34;;;;;;;28.13;16.40;;;2.70;99.90;;;;;;10343218;28;20266;-79
2023/12/14 19:36:37;;;;;;;27.97;15.60;;;2.70;99.90;;;;;;10355114;28;20226;-79
2023/12/14 19:41:40;;;;;;;27.53;16.77;;;2.70;99.90;;;;;;10357171;28;20679;-79
2023/12/14 19:46:42;;;;;;;25.93;16.20;;;2.90;99.90;;;;;;10365074;28;20267;-79
2023/12/14 19:51:45;;;;;;;24.77;15.32;;;3.50;99.90;;;;;;9670718;28;10000399;-79
2023/12/14 19:56:48;;;;;;;31.90;18.10;;;3.70;99.90;;;;;;10341423;28;20267;-77
2023/12/14 20:01:51;;;;;;;29.03;17.70;;;3.70;99.90;;;;;;10359026;28;21107;-78
2023/12/14 20:06:58;;;;;;;40.30;22.20;;;3.30;99.90;;;;;;10372070;28;20381;-78
2023/12/14 20:12:00;;;;;;;41.33;24.43;;;2.80;99.90;;;;;;10365959;28;20230;-78
2023/12/14 20:17:03;;;;;;;31.20;19.40;;;3.00;99.90;;;;;;10379656;28;20238;-78
2023/12/14 20:22:09;;;;;;;33.63;21.13;;;3.00;99.90;;;;;;10411436;28;20255;-78
2023/12/14 20:27:13;;;;;;;31.27;17.70;;;2.70;99.90;;;;;;10392245;28;20233;-78
2023/12/14 20:32:16;;;;;;;34.43;20.00;;;2.30;99.90;;;;;;10381907;28;20721;-78
2023/12/14 20:37:19;;;;;;;33.47;21.03;;;2.30;99.90;;;;;;10362442;28;20265;-78
2023/12/14 20:42:21;;;;;;;34.10;20.10;;;2.20;99.90;;;;;;10370746;28;20315;-78
2023/12/14 20:47:24;;;;;;;39.73;22.67;;;1.80;99.90;;;;;;10339635;28;20309;-78
2023/12/14 20:52:26;;;;;;;39.47;21.43;;;1.30;99.90;;;;;;10337495;28;20699;-78
2023/12/14 20:57:29;;;;;;;34.60;21.70;;;1.00;99.90;;;;;;10356469;28;20270;-78
2023/12/14 21:02:31;;;;;;;37.07;23.60;;;0.70;99.90;;;;;;10359681;28;20315;-78
2023/12/14 21:07:34;;;;;;;33.33;19.30;;;0.70;99.90;;;;;;10341572;28;20234;-78
2023/12/14 21:12:36;;;;;;;30.80;17.47;;;0.90;99.90;;;;;;10364346;28;20240;-78
2023/12/14 21:17:39;;;;;;;42.57;23.80;;;2.00;99.90;;;;;;10347245;28;20236;-78
2023/12/14 21:22:42;;;;;;;34.13;20.47;;;2.50;99.90;;;;;;10354486;28;20285;-78
2023/12/14 21:27:45;;;;;;;44.10;25.53;;;2.70;99.90;;;;;;10351690;28;20227;-78
2023/12/14 21:32:48;;;;;;;56.87;32.27;;;3.30;99.90;;;;;;10354219;28;20241;-78
2023/12/14 21:37:51;;;;;;;61.03;33.43;;;3.30;99.90;;;;;;10355095;28;20242;-78
2023/12/14 21:42:53;;;;;;;56.83;33.67;;;3.00;99.90;;;;;;10344268;28;20275;-78
2023/12/14 21:47:56;;;;;;;62.40;32.77;;;2.40;99.90;;;;;;10338141;28;20262;-78
2023/12/14 21:52:59;;;;;;;58.80;32.50;;;2.00;99.90;;;;;;10361823;28;20293;-78
2023/12/14 21:58:01;;;;;;;47.57;29.70;;;1.70;99.90;;;;;;10002062;28;10000221;-78
2023/12/14 22:03:04;;;;;;;51.23;28.63;;;1.60;99.90;;;;;;10371634;28;20653;-78
2023/12/14 22:08:06;;;;;;;49.87;27.77;;;1.60;99.90;;;;;;10349028;28;20264;-78
2023/12/14 22:13:09;;;;;;;33.73;21.33;;;1.70;99.90;;;;;;10353947;28;20649;-78
2023/12/14 22:18:11;;;;;;;32.60;20.97;;;2.30;99.90;;;;;;10342697;28;20250;-78
2023/12/14 22:23:14;;;;;;;78.10;42.60;;;2.70;99.90;;;;;;10339148;28;20263;-78
2023/12/14 22:28:17;;;;;;;54.60;29.17;;;2.90;99.90;;;;;;10339910;28;20748;-78
2023/12/14 22:33:19;;;;;;;50.53;27.20;;;3.10;99.90;;;;;;10357208;28;20231;-78
2023/12/14 22:38:22;;;;;;;42.60;24.57;;;3.30;99.90;;;;;;10345284;28;20241;-78
2023/12/14 22:43:24;;;;;;;40.67;22.77;;;3.50;99.90;;;;;;10334426;28;20263;-78
2023/12/14 22:48:27;;;;;;;47.57;27.37;;;3.80;99.90;;;;;;10334347;28;20304;-78
2023/12/14 22:53:30;;;;;;;50.73;27.90;;;3.40;99.90;;;;;;10338166;28;20259;-78
2023/12/14 22:58:32;;;;;;;43.90;27.30;;;3.10;99.90;;;;;;10343503;28;20230;-78
2023/12/14 23:03:35;;;;;;;27.43;16.80;;;2.50;99.90;;;;;;10366600;28;20248;-79
2023/12/14 23:08:37;;;;;;;44.97;27.80;;;3.00;99.90;;;;;;10364446;28;20273;-78
2023/12/14 23:13:40;;;;;;;45.07;26.50;;;3.30;99.90;;;;;;10384292;28;20288;-78
2023/12/14 23:18:42;;;;;;;37.47;21.77;;;3.00;99.90;;;;;;10327042;28;20263;-79
2023/12/14 23:23:45;;;;;;;29.00;17.70;;;3.20;99.90;;;;;;10402110;28;20670;-78
2023/12/14 23:28:48;;;;;;;38.53;23.57;;;3.80;99.90;;;;;;10359823;28;20277;-79
2023/12/14 23:33:51;;;;;;;39.20;24.57;;;4.00;99.90;;;;;;10327048;28;20224;-78
2023/12/14 23:38:54;;;;;;;20.83;14.17;;;3.20;99.90;;;;;;10359694;28;20230;-79
2023/12/14 23:43:59;;;;;;;41.30;26.30;;;3.10;99.90;;;;;;10368155;28;20243;-78
2023/12/14 23:49:01;;;;;;;37.77;24.17;;;3.40;99.90;;;;;;10392117;28;20252;-78
2023/12/14 23:54:04;;;;;;;33.87;21.60;;;3.20;99.90;;;;;;10354199;28;20287;-78
2023/12/14 23:59:07;;;;;;;33.67;19.70;;;3.40;99.90;;;;;;10362513;28;20659;-77
